Latest Weather Observations for Manjimup

IDW60801

Issued at 1:53 pm WST Saturday 10 December 2022 (issued every 10 minutes, with the page automatically refreshed every 10 minutes)

About weather observations | Map of weather stations | Latest weather observations for WA | Other Formats
Station Details ID: 009573 Name: MANJIMUP Lat: -34.25 Lon: 116.14 Height: 286.7 m
Data from the previous 72 hours. | See also: Recent months at Manjimup
Date/Time
WST
Temp
°C
App
Temp
°C
Dew
Point
°C
Rel
Hum
%
Delta-T
°C
Wind Press
QNH
hPa
Press
MSL
hPa
Rain since
9am
mm
Dir  Spd
km/h
Gust
km/h
Spd
kts
Gust
kts
10/01:30pm 18.6 13.8 5.8 43 6.4 S 20 30 11 16 1020.3 1019.5 0.0
10/01:00pm 17.7 13.1 6.6 48 5.6 SSW 20 30 11 16 1020.4 1019.7 0.0
10/12:30pm 17.9 13.5 6.4 47 5.8 SSW 19 28 10 15 1020.4 1019.7 0.0
10/12:00pm 18.3 15.1 6.8 47 5.8 SSE 13 20 7 11 1020.4 1019.7 0.0
10/11:30am 16.8 13.2 6.9 52 5.0 S 15 26 8 14 1020.7 1020.0 0.0
10/11:00am 16.6 12.4 7.3 54 4.7 SSW 19 26 10 14 1020.9 1020.2 0.0
10/10:30am 15.9 11.3 5.8 51 4.9 S 19 22 10 12 1020.6 1019.9 0.0
10/10:00am 16.5 12.8 6.1 50 5.1 SE 15 24 8 13 1020.5 1019.8 0.0
10/09:30am 15.9 12.6 6.3 53 4.7 SSE 13 20 7 11 1020.3 1019.5 0.0
10/09:00am 16.1 12.6 7.1 55 4.5 S 15 22 8 12 1020.3 1019.5 0.4
10/08:30am 16.0 12.8 8.5 61 3.9 SE 15 26 8 14 1020.1 1019.3 0.4
10/08:00am 15.2 11.9 8.2 63 3.6 S 15 22 8 12 1020.1 1019.3 0.4
10/07:30am 14.3 11.2 8.9 70 2.8 S 15 24 8 13 1019.7 1018.9 0.4
10/07:00am 13.6 10.9 8.9 73 2.4 SSE 13 20 7 11 1019.2 1018.4 0.4
10/06:30am 12.3 9.6 9.0 80 1.7 S 13 19 7 10 1019.0 1018.2 0.4
10/06:00am 11.4 8.8 9.3 87 1.1 S 13 17 7 9 1018.7 1017.9 0.4
10/05:30am 10.5 8.4 9.6 94 0.5 SSW 11 15 6 8 1018.5 1017.7 0.4
10/05:00am 9.2 7.1 8.4 95 0.4 SSW 9 13 5 7 1018.3 1017.5 0.4
10/04:30am 8.3 6.6 7.4 94 0.4 S 6 7 3 4 1018.0 1017.2 0.4
10/04:00am 8.3 7.6 7.1 92 0.6 CALM 0 0 0 0 1017.7 1016.9 0.4
10/03:30am 8.8 7.1 7.6 92 0.6 S 6 7 3 4 1017.2 1016.4 0.4
10/03:00am 9.5 7.5 8.6 94 0.4 S 9 11 5 6 1017.1 1016.3 0.4
10/02:30am 8.7 6.9 7.8 94 0.4 S 7 9 4 5 1017.1 1016.3 0.4
10/02:00am 9.0 7.3 8.2 95 0.4 S 7 7 4 4 1016.9 1016.1 0.4
10/01:30am 8.9 6.7 8.0 94 0.4 S 9 9 5 5 1017.0 1016.2 0.4
10/01:00am 9.5 7.9 8.6 94 0.4 S 7 9 4 5 1017.0 1016.2 0.4
10/12:30am 9.5 7.9 8.7 95 0.4 S 7 9 4 5 1017.2 1016.4 0.4
10/12:00am 10.2 8.8 9.4 95 0.4 S 7 9 4 5 1017.4 1016.7 0.4
 
Date/Time
WST
Temp
°C
App
Temp
°C
Dew
Point
°C
Rel
Hum
%
Delta-T
°C
Wind Press
QNH
hPa
Press
MSL
hPa
Rain since
9am
mm
Dir  Spd
km/h
Gust
km/h
Spd
kts
Gust
kts
09/11:30pm 10.7 9.1 10.1 96 0.3 S 9 11 5 6 1017.3 1016.6 0.4
09/11:00pm 10.9 9.3 10.1 95 0.4 S 9 9 5 5 1017.3 1016.6 0.4
09/10:30pm 11.0 9.9 10.1 94 0.5 S 6 7 3 4 1017.2 1016.4 0.4
09/10:00pm 11.4 10.3 10.5 94 0.5 S 7 11 4 6 1016.9 1016.1 0.4
09/09:30pm 11.8 10.4 10.9 94 0.5 S 9 11 5 6 1016.8 1016.0 0.4
09/09:00pm 12.2 10.9 11.1 93 0.6 S 9 11 5 6 1016.6 1015.8 0.4
09/08:30pm 12.4 11.4 11.1 92 0.7 S 7 9 4 5 1016.1 1015.3 0.4
09/08:00pm 12.7 11.7 11.1 90 0.9 SSW 7 11 4 6 1015.9 1015.1 0.4
09/07:30pm 13.3 11.6 11.2 87 1.1 SSW 11 15 6 8 1015.6 1014.8 0.4
09/07:00pm 14.0 12.6 12.2 89 1.0 SSW 11 15 6 8 1015.4 1014.6 0.4
09/06:30pm 14.1 13.5 12.3 89 1.0 SSW 7 11 4 6 1014.9 1014.1 0.4
09/06:00pm 14.4 12.9 13.0 91 0.8 S 13 17 7 9 1014.8 1014.0 0.4
09/05:30pm 14.3 11.6 12.9 91 0.8 SSW 19 28 10 15 1014.6 1013.8 0.4
09/05:00pm 14.8 12.6 13.3 91 0.8 SSW 17 24 9 13 1014.1 1013.2 0.4
09/04:30pm 15.3 13.4 14.2 93 0.6 SSW 17 26 9 14 1013.6 1012.8 0.4
09/04:00pm 16.0 13.3 13.5 85 1.4 SSW 20 35 11 19 1013.5 1012.7 0.0
09/03:30pm 17.3 14.8 13.4 78 2.2 SW 19 32 10 17 1013.0 1012.2 0.0
09/03:00pm 17.2 14.7 13.5 79 2.1 SW 19 28 10 15 1013.0 1012.2 0.0
09/02:30pm 17.8 16.0 13.3 75 2.6 SW 15 24 8 13 1012.8 1012.0 0.0
09/02:00pm 18.2 14.9 11.5 65 3.7 SW 20 35 11 19 1012.5 1011.7 0.0
09/01:30pm 22.3 20.4 10.5 47 6.6 W 11 19 6 10 1012.2 1011.4 0.0
09/01:00pm 20.5 18.2 10.3 52 5.6 WSW 13 20 7 11 1012.4 1011.6 0.0
09/12:30pm 20.9 18.7 9.2 47 6.3 SW 11 19 6 10 1012.4 1011.6 0.0
09/12:00pm 21.2 18.7 9.8 48 6.2 SW 13 20 7 11 1012.5 1011.7 0.0
09/11:30am 20.5 17.4 8.8 47 6.2 SW 15 22 8 12 1012.6 1011.8 0.0
09/11:00am 20.0 18.0 8.7 48 6.0 WSW 9 17 5 9 1012.6 1011.8 0.0
09/10:30am 20.4 17.7 9.0 48 6.1 SW 13 19 7 10 1012.7 1011.9 0.0
09/10:00am 19.3 16.8 8.0 48 5.9 SW 11 19 6 10 1012.7 1011.9 0.0
09/09:30am 18.9 16.0 8.3 50 5.6 SW 13 17 7 9 1012.8 1012.0 0.0
09/09:00am 17.8 15.4 8.6 55 4.8 WSW 11 17 6 9 1012.9 1012.1 0.0
09/08:30am 17.8 15.7 8.4 54 4.9 W 9 17 5 9 1013.0 1012.2 0.0
09/08:00am 16.4 14.2 7.9 57 4.3 W 9 17 5 9 1013.0 1012.2 0.0
09/07:30am 16.2 13.6 7.9 58 4.2 W 11 20 6 11 1012.8 1012.0 0.0
09/07:00am 15.1 13.0 8.1 63 3.6 W 9 20 5 11 1012.6 1011.8 0.0
09/06:30am 14.1 12.4 9.7 75 2.3 WSW 9 13 5 7 1012.3 1011.5 0.0
09/06:00am 12.0 11.1 10.6 91 0.7 WSW 6 9 3 5 1012.1 1011.3 0.0
09/05:30am 11.4 10.2 9.7 89 0.9 WSW 6 7 3 4 1011.9 1011.1 0.0
09/05:00am 11.8 10.5 9.2 84 1.3 WSW 6 7 3 4 1011.8 1011.0 0.0
09/04:30am 12.8 11.6 9.6 81 1.7 WSW 6 9 3 5 1011.6 1010.8 0.0
09/04:00am 12.8 11.2 8.9 77 2.0 SW 7 15 4 8 1011.4 1010.6 0.0
09/03:30am 11.6 9.7 10.5 93 0.6 SW 11 15 6 8 1011.4 1010.6 0.0
09/03:00am 11.0 9.6 9.6 91 0.7 SW 7 9 4 5 1011.4 1010.6 0.0
09/02:30am 11.6 10.3 9.9 89 0.9 SW 7 11 4 6 1011.3 1010.5 0.0
09/02:00am 12.3 11.1 10.2 87 1.1 SSW 7 9 4 5 1011.4 1010.6 0.0
09/01:30am 13.0 12.0 10.9 87 1.1 SW 7 11 4 6 1011.6 1010.8 0.0
09/01:00am 13.3 12.4 11.4 88 1.0 SW 7 11 4 6 1011.7 1010.9 0.0
09/12:30am 13.3 11.6 11.2 87 1.1 SW 11 17 6 9 1011.8 1011.0 0.0
09/12:00am 13.3 12.0 11.4 88 1.0 SW 9 13 5 7 1011.8 1011.0 0.0
 
Date/Time
WST
Temp
°C
App
Temp
°C
Dew
Point
°C
Rel
Hum
%
Delta-T
°C
Wind Press
QNH
hPa
Press
MSL
hPa
Rain since
9am
mm
Dir  Spd
km/h
Gust
km/h
Spd
kts
Gust
kts
08/11:30pm 13.5 12.2 11.4 87 1.1 SW 9 15 5 8 1011.8 1011.0 0.0
08/11:00pm 14.0 11.9 11.3 84 1.5 SW 13 17 7 9 1012.0 1011.2 0.0
08/10:30pm 14.3 13.1 11.5 83 1.5 SSW 9 13 5 7 1012.1 1011.3 0.0
08/10:00pm 14.3 13.0 11.3 82 1.6 SSW 9 13 5 7 1012.0 1011.2 0.0
08/09:30pm 14.2 12.4 10.8 80 1.8 S 11 15 6 8 1012.0 1011.2 0.0
08/09:00pm 14.9 12.4 10.9 77 2.2 SSW 15 24 8 13 1011.9 1011.1 0.0
08/08:30pm 15.4 12.7 11.6 78 2.1 SSW 17 24 9 13 1011.4 1010.6 0.0
08/08:00pm 15.7 13.1 11.9 78 2.1 SSW 17 22 9 12 1011.1 1010.2 0.0
08/07:30pm 16.4 13.9 12.4 77 2.2 SSW 17 26 9 14 1010.7 1009.8 0.0
08/07:00pm 16.3 13.1 11.9 75 2.4 SSW 20 30 11 16 1010.4 1009.5 0.0
08/06:30pm 17.3 14.3 11.8 70 3.0 SSW 19 28 10 15 1009.8 1009.0 0.0
08/06:00pm 17.9 14.7 11.9 68 3.3 SSW 20 32 11 17 1009.3 1008.5 0.0
08/05:30pm 18.9 15.3 11.9 64 3.9 SSW 22 35 12 19 1009.0 1008.2 0.0
08/05:00pm 19.2 15.1 12.7 66 3.7 SW 26 35 14 19 1008.7 1007.9 0.0
08/04:30pm 20.5 17.3 13.0 62 4.3 SW 22 35 12 19 1008.3 1007.5 0.0
08/04:00pm 20.8 17.1 12.8 60 4.6 SW 24 37 13 20 1007.8 1006.9 0.0
08/03:30pm 23.4 20.5 13.0 52 6.1 SSW 20 32 11 17 1007.3 1006.4 0.0
08/03:00pm 24.6 21.0 13.2 49 6.7 SW 24 35 13 19 1007.2 1006.3 0.0
08/02:30pm 25.3 22.7 13.2 47 7.1 SW 19 32 10 17 1006.9 1006.0 0.0
08/02:00pm 26.6 24.2 13.7 45 7.7 SW 19 32 10 17 1006.7 1005.8 0.0
08/01:30pm 27.8 26.0 12.2 38 9.2 WSW 13 28 7 15 1006.8 1005.9 0.0
08/01:00pm 26.4 23.5 10.9 38 8.9 WNW 17 30 9 16 1006.6 1005.7 0.0
08/12:30pm 26.9 24.8 12.5 40 8.5 WSW 15 28 8 15 1006.7 1005.8 0.0
08/12:00pm 26.8 26.0 12.8 42 8.3 W 9 15 5 8 1006.7 1005.8 0.0
08/11:30am 26.3 25.8 12.7 43 8.0 NW 7 13 4 7 1007.0 1006.1 0.0
08/11:00am 24.8 23.2 11.7 44 7.5 NW 11 17 6 9 1007.3 1006.4 0.0
08/10:30am 24.0 22.8 11.7 46 7.0 NW 9 17 5 9 1007.5 1006.6 0.0
08/10:00am 22.7 21.2 12.0 50 6.1 WNW 11 17 6 9 1007.8 1006.9 0.0
08/09:30am 21.8 21.6 12.9 57 5.1 NNW 6 11 3 6 1008.0 1007.1 0.0
08/09:00am 20.2 18.8 12.2 60 4.5 NNW 11 17 6 9 1008.0 1007.1 0.0
08/08:30am 19.4 18.4 12.4 64 4.0 NW 9 15 5 8 1008.1 1007.2 0.0
08/08:00am 18.0 17.5 12.0 68 3.4 N 6 11 3 6 1007.7 1006.8 0.0
08/07:30am 16.9 15.9 12.2 74 2.6 ENE 9 13 5 7 1007.7 1006.8 0.0
08/07:00am 15.6 14.8 11.8 78 2.1 ESE 7 11 4 6 1007.4 1006.5 0.0
08/06:30am 13.6 13.5 12.0 90 0.9 ENE 4 11 2 6 1007.1 1006.2 0.0
08/06:00am 12.4 12.7 11.0 91 0.7 CALM 0 0 0 0 1006.4 1005.6 0.0
08/05:30am 12.4 11.5 10.8 90 0.8 E 6 9 3 5 1006.2 1005.4 0.0
08/05:00am 12.6 11.2 10.8 89 1.0 ENE 9 13 5 7 1006.3 1005.5 0.0
08/04:30am 12.8 11.4 10.9 88 1.0 ENE 9 15 5 8 1006.7 1005.8 0.0
08/04:00am 13.0 11.2 10.7 86 1.2 ENE 11 20 6 11 1006.7 1005.8 0.0
08/03:30am 13.0 11.1 10.5 85 1.3 ENE 11 20 6 11 1007.0 1006.1 0.0
08/03:00am 13.0 11.0 10.2 83 1.5 ENE 11 20 6 11 1007.6 1006.7 0.0
08/02:30am 13.2 10.8 10.0 81 1.7 E 13 22 7 12 1007.7 1006.8 0.0
08/02:00am 13.3 10.8 9.7 79 1.9 E 13 28 7 15 1007.8 1006.9 0.0
08/01:30am 13.4 10.0 9.3 76 2.1 ENE 17 33 9 18 1008.1 1007.2 0.0
08/01:00am 13.7 10.3 9.0 73 2.4 E 17 35 9 19 1008.7 1007.9 0.0
08/12:30am 13.8 11.1 9.0 73 2.5 E 13 32 7 17 1009.4 1008.6 0.0
08/12:00am 14.1 11.4 9.1 72 2.6 ENE 13 24 7 13 1010.2 1009.3 0.0
 
Date/Time
WST
Temp
°C
App
Temp
°C
Dew
Point
°C
Rel
Hum
%
Delta-T
°C
Wind Press
QNH
hPa
Press
MSL
hPa
Rain since
9am
mm
Dir  Spd
km/h
Gust
km/h
Spd
kts
Gust
kts
07/11:30pm 14.2 11.2 9.2 72 2.6 ENE 15 30 8 16 1010.6 1009.7 0.0
07/11:00pm 14.3 10.9 9.3 72 2.6 E 17 28 9 15 1010.4 1009.5 0.0
07/10:30pm 14.6 11.2 9.2 70 2.8 E 17 28 9 15 1010.7 1009.8 0.0
07/10:00pm 14.9 11.5 9.1 68 3.0 E 17 37 9 20 1011.0 1010.1 0.0
07/09:30pm 15.6 11.6 9.1 65 3.4 ESE 20 39 11 21 1010.8 1009.9 0.0
07/09:00pm 16.5 12.7 9.0 61 3.9 E 19 32 10 17 1010.6 1009.7 0.0
07/08:30pm 17.5 14.0 8.6 56 4.6 SE 17 26 9 14 1010.7 1009.8 0.0
07/08:00pm 18.5 14.4 8.5 52 5.3 SE 20 30 11 16 1010.8 1009.9 0.0
07/07:30pm 20.0 16.4 6.7 42 6.8 E 15 24 8 13 1010.7 1009.8 0.0
07/07:00pm 21.2 17.4 5.9 37 7.8 ESE 15 30 8 16 1010.7 1009.8 0.0
07/06:30pm 22.2 18.7 5.6 34 8.4 E 13 22 7 12 1010.7 1009.8 0.0
07/06:00pm 23.5 20.1 5.9 32 9.1 E 13 24 7 13 1010.6 1009.7 0.0
07/05:30pm 24.1 20.3 5.9 31 9.4 E 15 24 8 13 1010.5 1009.6 0.0
07/05:00pm 24.9 21.5 5.7 29 10.0 E 13 20 7 11 1010.4 1009.5 0.0
07/04:30pm 25.0 21.3 4.7 27 10.3 ENE 13 24 7 13 1010.5 1009.6 0.0
07/04:00pm 24.7 20.7 5.0 28 10.1 ESE 15 30 8 16 1010.9 1010.0 0.0
07/03:30pm 24.9 20.6 5.2 28 10.1 ESE 17 33 9 18 1011.2 1010.3 0.0
07/03:00pm 25.3 21.9 6.0 29 10.1 ENE 13 20 7 11 1011.7 1010.9 0.0
07/02:30pm 24.3 19.6 5.1 29 9.8 ESE 19 32 10 17 1012.3 1011.5 0.0
07/02:00pm 25.1 22.1 5.8 29 10.0 ENE 11 20 6 11 1012.8 1012.0 0.0

Other formats

Comma delimited format used in spreadsheet applications
http://www.bom.gov.au/fwo/IDW60801/IDW60801.94617.axf

JavaScript Object Notation format (JSON) in row-major order
http://www.bom.gov.au/fwo/IDW60801/IDW60801.94617.json

Data quality

Most of these data are generated automatically and are frequently updated. Quality checks on data are not normally performed. It is possible for incorrect values to appear. Refer to information at About Latest Weather Observations and please check the disclaimer before using these data.